Time;durP1;ratioP1;P1;durP2;ratioP2;P2;SDS_P1;SDS_P2;PMS_P1;PMS_P2;Temp;Humidity;BMP_temperature;BMP_pressure;BME280_temperature;BME280_humidity;BME280_pressure;Samples;Min_cycle;Max_cycle;Signal;HPM_P1;HPM_P2
2022/11/17 13:17:11;;;;;;;3.35;1.20;;;;;;;;;;3834246;37;43962;-64
2022/11/17 13:20:21;;;;;;;2.62;1.48;;;;;;;;;;4396198;32;60405;-62
2022/11/17 13:23:21;;;;;;;1.52;1.42;;;;;;;;;;4406743;32;69212;-64
2022/11/17 13:26:20;;;;;;;6.80;1.48;;;;;;;;;;4396977;32;69531;-62
2022/11/17 13:29:14;;;;;;;3.12;1.27;;;;;;;;;;4407328;32;66429;-63
2022/11/17 13:32:22;;;;;;;3.87;1.17;;;;;;;;;;4407724;32;71340;-63
2022/11/17 13:35:23;;;;;;;1.58;0.93;;;;;;;;;;4409363;32;64890;-63
2022/11/17 13:38:21;;;;;;;1.25;1.10;;;;;;;;;;4409366;32;66352;-63
2022/11/17 13:41:07;;;;;;;1.30;1.05;;;;;;;;;;4398763;32;59200;-64
2022/11/17 13:43:54;;;;;;;1.55;1.45;;;;;;;;;;4410393;32;71914;-64
2022/11/17 13:46:41;;;;;;;1.37;1.20;;;;;;;;;;4409143;32;65941;-62
2022/11/17 13:49:34;;;;;;;3.35;1.70;;;;;;;;;;4387995;32;67841;-64
2022/11/17 13:52:34;;;;;;;2.78;2.00;;;;;;;;;;4398762;32;59104;-62
2022/11/17 13:55:21;;;;;;;2.15;1.33;;;;;;;;;;4395405;32;69649;-63
2022/11/17 13:58:33;;;;;;;3.12;1.37;;;;;;;;;;4382383;32;69975;-62
2022/11/17 14:01:31;;;;;;;1.85;1.20;;;;;;;;;;4371338;32;67863;-62
2022/11/17 14:04:22;;;;;;;3.97;1.00;;;;;;;;;;4372272;32;71799;-64
2022/11/17 14:07:10;;;;;;;1.12;1.02;;;;;;;;;;4371990;32;65375;-63
2022/11/17 14:10:19;;;;;;;1.95;1.52;;;;;;;;;;4393683;32;69072;-63
2022/11/17 14:13:05;;;;;;;1.42;1.27;;;;;;;;;;4381912;32;66081;-64
2022/11/17 14:16:01;;;;;;;1.77;1.60;;;;;;;;;;4394218;32;70901;-65
2022/11/17 14:18:59;;;;;;;1.92;1.50;;;;;;;;;;4393651;32;66020;-63
2022/11/17 14:22:08;;;;;;;1.83;1.40;;;;;;;;;;4393561;32;66804;-61
2022/11/17 14:24:54;;;;;;;2.05;1.62;;;;;;;;;;4383051;32;60248;-62
2022/11/17 14:27:41;;;;;;;1.67;1.33;;;;;;;;;;4375812;32;69627;-63
2022/11/17 14:30:27;;;;;;;3.80;1.35;;;;;;;;;;4361226;32;67192;-64
2022/11/17 14:33:14;;;;;;;1.50;1.37;;;;;;;;;;4372085;32;68320;-62
2022/11/17 14:36:01;;;;;;;10.80;1.80;;;;;;;;;;4372754;32;59127;-61
2022/11/17 14:38:48;;;;;;;3.72;2.08;;;;;;;;;;4372582;32;69328;-62
2022/11/17 14:41:35;;;;;;;2.40;1.50;;;;;;;;;;4372702;32;69481;-62
2022/11/17 14:44:22;;;;;;;1.52;1.15;;;;;;;;;;4361335;32;67390;-62
2022/11/17 14:47:09;;;;;;;2.70;1.40;;;;;;;;;;4383023;32;71525;-61
2022/11/17 14:49:55;;;;;;;1.35;1.25;;;;;;;;;;4384568;32;64873;-61
2022/11/17 14:52:42;;;;;;;;;;;;;;;;;;4351530;32;67016;-60
2022/11/17 14:55:30;;;;;;;2.37;1.77;;;;;;;;;;4371809;32;60372;-63
2022/11/17 14:58:16;;;;;;;1.33;1.15;;;;;;;;;;4360947;32;71269;-64
2022/11/17 15:01:11;;;;;;;1.37;1.12;;;;;;;;;;4361175;32;66354;-63
2022/11/17 15:04:02;;;;;;;0.95;0.90;;;;;;;;;;4371296;32;68533;-64
2022/11/17 15:06:52;;;;;;;1.58;1.42;;;;;;;;;;4373117;32;60228;-63
2022/11/17 15:09:38;;;;;;;2.40;1.70;;;;;;;;;;4382774;32;70469;-62
2022/11/17 15:12:25;;;;;;;;;;;;;;;;;;4372343;32;68004;-63
2022/11/17 15:15:12;;;;;;;1.48;1.37;;;;;;;;;;4361414;32;67068;-62
2022/11/17 15:17:59;;;;;;;1.87;1.25;;;;;;;;;;4382572;32;70670;-64
2022/11/17 15:20:46;;;;;;;1.10;1.00;;;;;;;;;;4382864;32;66386;-64
2022/11/17 15:23:36;;;;;;;1.30;1.20;;;;;;;;;;4372485;32;67623;-63
2022/11/17 15:26:23;;;;;;;1.33;1.20;;;;;;;;;;4382763;32;67793;-63
2022/11/17 15:29:13;;;;;;;1.80;1.17;;;;;;;;;;4371193;32;72828;-63
2022/11/17 15:32:00;;;;;;;2.25;1.62;;;;;;;;;;4361563;32;65086;-63
2022/11/17 15:34:47;;;;;;;1.58;1.02;;;;;;;;;;4372014;32;66666;-64
2022/11/17 15:37:33;;;;;;;1.60;1.37;;;;;;;;;;4384059;32;59211;-65
2022/11/17 15:40:20;;;;;;;;;;;;;;;;;;4360361;32;71005;-62
2022/11/17 15:43:06;;;;;;;1.55;1.10;;;;;;;;;;4382567;32;69493;-63
2022/11/17 15:46:00;;;;;;;1.37;1.20;;;;;;;;;;4381947;32;68551;-64
2022/11/17 15:48:48;;;;;;;1.42;1.10;;;;;;;;;;4350551;32;60777;-64
2022/11/17 15:51:35;;;;;;;0.90;0.90;;;;;;;;;;4370906;32;71829;-64
2022/11/17 15:54:22;;;;;;;1.48;1.23;;;;;;;;;;4361181;32;69703;-64
2022/11/17 15:57:09;;;;;;;1.25;0.70;;;;;;;;;;4371679;32;67689;-64
2022/11/17 15:59:55;;;;;;;1.40;1.20;;;;;;;;;;4360108;32;71929;-63
2022/11/17 16:02:42;;;;;;;1.92;0.80;;;;;;;;;;4371693;32;65909;-63
2022/11/17 16:05:29;;;;;;;1.40;1.30;;;;;;;;;;4371682;32;67542;-63
2022/11/17 16:08:15;;;;;;;3.65;1.33;;;;;;;;;;4382333;32;59060;-63
2022/11/17 16:11:02;;;;;;;0.88;0.88;;;;;;;;;;4381934;32;70616;-63
2022/11/17 16:13:52;;;;;;;1.52;0.95;;;;;;;;;;4371633;32;64994;-64
2022/11/17 16:16:39;;;;;;;1.10;0.90;;;;;;;;;;4371200;32;67185;-62
2022/11/17 16:19:26;;;;;;;1.62;1.17;;;;;;;;;;4382324;32;60162;-63
2022/11/17 16:22:13;;;;;;;1.50;1.00;;;;;;;;;;4371462;32;69412;-63
2022/11/17 16:25:00;;;;;;;1.80;1.55;;;;;;;;;;4371322;32;69488;-64
2022/11/17 16:27:46;;;;;;;1.12;1.00;;;;;;;;;;4371534;32;67602;-63
2022/11/17 16:30:36;;;;;;;0.82;0.80;;;;;;;;;;4371537;32;70627;-63
2022/11/17 16:33:23;;;;;;;2.00;0.90;;;;;;;;;;4371553;32;65929;-64
2022/11/17 16:36:09;;;;;;;1.20;1.10;;;;;;;;;;4371464;32;67488;-63
2022/11/17 16:38:57;;;;;;;2.53;1.65;;;;;;;;;;4360761;32;67710;-64
2022/11/17 16:41:45;;;;;;;1.58;1.08;;;;;;;;;;4360588;32;71950;-64
2022/11/17 16:44:31;;;;;;;1.50;1.40;;;;;;;;;;4383586;32;64891;-64
2022/11/17 16:47:18;;;;;;;0.93;0.90;;;;;;;;;;4363582;32;66472;-64
2022/11/17 16:50:05;;;;;;;2.50;1.30;;;;;;;;;;4381964;32;60096;-63
2022/11/17 16:52:51;;;;;;;;;;;;;;;;;;4371986;32;70082;-63
2022/11/17 16:55:39;;;;;;;1.75;1.10;;;;;;;;;;4383303;32;68632;-64
2022/11/17 16:58:25;;;;;;;1.87;1.35;;;;;;;;;;4371624;32;66772;-64
2022/11/17 17:01:14;;;;;;;0.55;0.55;;;;;;;;;;4361410;32;70364;-63
2022/11/17 17:04:05;;;;;;;1.00;0.93;;;;;;;;;;4371252;32;69122;-63
2022/11/17 17:06:52;;;;;;;1.05;0.90;;;;;;;;;;4372018;32;69237;-64
2022/11/17 17:09:39;;;;;;;1.67;1.12;;;;;;;;;;4371308;32;66861;-64
2022/11/17 17:12:27;;;;;;;1.95;1.10;;;;;;;;;;4370854;32;70726;-64
2022/11/17 17:15:13;;;;;;;1.37;1.10;;;;;;;;;;4369786;32;65562;-65
2022/11/17 17:18:00;;;;;;;0.68;0.68;;;;;;;;;;4360311;32;67328;-64
2022/11/17 17:20:51;;;;;;;1.00;0.90;;;;;;;;;;4383065;32;60028;-64
2022/11/17 17:23:37;;;;;;;0.80;0.73;;;;;;;;;;4381396;32;69543;-62
2022/11/17 17:26:25;;;;;;;0.43;0.43;;;;;;;;;;4370767;32;69606;-63
2022/11/17 17:29:12;;;;;;;0.50;0.50;;;;;;;;;;4381413;32;67700;-64
2022/11/17 17:31:59;;;;;;;0.77;0.77;;;;;;;;;;4381666;32;60208;-64
2022/11/17 17:34:45;;;;;;;2.50;1.00;;;;;;;;;;4369852;32;71431;-64
2022/11/17 17:37:32;;;;;;;3.03;1.15;;;;;;;;;;4370315;32;69844;-63
2022/11/17 17:40:19;;;;;;;1.08;0.90;;;;;;;;;;4360089;32;68747;-63
2022/11/17 17:43:05;;;;;;;3.92;0.75;;;;;;;;;;4370569;32;71758;-63
2022/11/17 17:45:54;;;;;;;2.22;1.10;;;;;;;;;;4381362;32;66079;-63
2022/11/17 17:48:42;;;;;;;3.85;0.80;;;;;;;;;;4359440;32;67841;-63
2022/11/17 17:51:29;;;;;;;1.30;1.20;;;;;;;;;;4370223;32;60438;-63
2022/11/17 17:54:17;;;;;;;2.37;1.95;;;;;;;;;;4370309;32;71829;-64
2022/11/17 17:57:04;;;;;;;1.80;0.88;;;;;;;;;;4370387;32;65898;-64
2022/11/17 17:59:51;;;;;;;1.25;0.80;;;;;;;;;;4359947;32;67833;-64
2022/11/17 18:02:37;;;;;;;1.05;0.90;;;;;;;;;;4382395;32;58760;-64
2022/11/17 18:05:24;;;;;;;;;;;;;;;;;;4373431;32;70407;-62
2022/11/17 18:08:11;;;;;;;0.62;0.50;;;;;;;;;;4383869;32;69031;-64
2022/11/17 18:11:01;;;;;;;0.95;0.80;;;;;;;;;;4373016;32;66674;-64
2022/11/17 18:13:49;;;;;;;1.62;1.10;;;;;;;;;;4385286;32;71558;-63
2022/11/17 18:16:37;;;;;;;0.80;0.50;;;;;;;;;;4372412;32;70241;-64
2022/11/17 18:19:24;;;;;;;1.15;1.02;;;;;;;;;;4383344;32;68251;-63
2022/11/17 18:22:10;;;;;;;0.75;0.75;;;;;;;;;;4383470;32;66821;-63
2022/11/17 18:24:57;;;;;;;0.75;0.70;;;;;;;;;;4361552;32;72680;-64
2022/11/17 18:27:43;;;;;;;0.70;0.60;;;;;;;;;;4372220;32;66702;-63
2022/11/17 18:30:30;;;;;;;0.70;0.70;;;;;;;;;;4362189;32;67775;-64
2022/11/17 18:33:17;;;;;;;1.52;1.00;;;;;;;;;;4383739;32;59025;-63
2022/11/17 18:36:05;;;;;;;0.50;0.50;;;;;;;;;;4361750;32;70928;-64
2022/11/17 18:38:52;;;;;;;2.15;0.80;;;;;;;;;;4372851;32;69177;-62
2022/11/17 18:41:39;;;;;;;0.88;0.57;;;;;;;;;;4362158;32;67865;-64
2022/11/17 18:44:26;;;;;;;0.40;0.40;;;;;;;;;;4372089;32;60607;-64
2022/11/17 18:47:13;;;;;;;0.45;0.45;;;;;;;;;;4361438;32;71219;-63
2022/11/17 18:50:00;;;;;;;0.65;0.60;;;;;;;;;;4372505;32;69292;-65
2022/11/17 18:52:46;;;;;;;2.83;0.85;;;;;;;;;;4372479;32;67865;-64
2022/11/17 18:55:34;;;;;;;0.80;0.60;;;;;;;;;;4372365;32;70532;-64
2022/11/17 18:58:20;;;;;;;0.88;0.73;;;;;;;;;;4372317;32;65001;-64
2022/11/17 19:01:19;;;;;;;0.50;0.40;;;;;;;;;;4382899;32;68339;-65
2022/11/17 19:04:05;;;;;;;0.73;0.73;;;;;;;;;;4383356;32;59232;-63
2022/11/17 19:06:52;;;;;;;;;;;;;;;;;;4372687;32;71786;-64
2022/11/17 19:09:38;;;;;;;0.77;0.70;;;;;;;;;;4372283;32;66470;-63
2022/11/17 19:12:25;;;;;;;0.75;0.65;;;;;;;;;;4382977;32;66520;-64
2022/11/17 19:15:11;;;;;;;;;;;;;;;;;;4382619;32;61714;-63
2022/11/17 19:17:58;;;;;;;1.42;0.60;;;;;;;;;;4372270;32;70244;-64
2022/11/17 19:20:45;;;;;;;1.37;0.60;;;;;;;;;;4372190;32;69296;-65
2022/11/17 19:23:34;;;;;;;0.30;0.30;;;;;;;;;;4360901;32;67687;-64
2022/11/17 19:26:26;;;;;;;0.68;0.57;;;;;;;;;;4372268;32;71645;-64
2022/11/17 19:29:13;;;;;;;0.90;0.60;;;;;;;;;;4361762;32;65462;-64
2022/11/17 19:31:59;;;;;;;0.93;0.50;;;;;;;;;;4360985;32;69958;-64
2022/11/17 19:34:46;;;;;;;0.40;0.40;;;;;;;;;;4361687;32;68042;-62
2022/11/17 19:37:33;;;;;;;1.15;0.75;;;;;;;;;;4372215;32;71548;-63
2022/11/17 19:40:20;;;;;;;0.80;0.75;;;;;;;;;;4361515;32;65832;-63
2022/11/17 19:43:06;;;;;;;1.52;1.00;;;;;;;;;;4360349;32;68118;-64
2022/11/17 19:45:56;;;;;;;;;;;;;;;;;;4383140;32;60378;-64
2022/11/17 19:48:43;;;;;;;0.77;0.70;;;;;;;;;;4350438;32;70503;-63
2022/11/17 19:51:32;;;;;;;1.77;1.00;;;;;;;;;;4372307;32;69576;-63
2022/11/17 19:54:18;;;;;;;0.30;0.30;;;;;;;;;;4372414;32;66577;-63
2022/11/17 19:57:05;;;;;;;1.00;0.80;;;;;;;;;;4372558;32;59299;-65
2022/11/17 19:59:51;;;;;;;1.48;0.93;;;;;;;;;;4372700;32;69424;-64
2022/11/17 20:02:38;;;;;;;;;;;;;;;;;;4373268;32;69657;-63
2022/11/17 20:05:25;;;;;;;1.85;1.02;;;;;;;;;;4372286;32;68559;-64
2022/11/17 20:08:12;;;;;;;1.12;0.95;;;;;;;;;;4361673;32;71328;-63
2022/11/17 20:11:09;;;;;;;0.73;0.70;;;;;;;;;;4372220;32;66088;-64
2022/11/17 20:13:56;;;;;;;2.05;1.20;;;;;;;;;;4361197;32;67835;-64
2022/11/17 20:16:43;;;;;;;0.60;0.60;;;;;;;;;;4361983;32;59087;-64
2022/11/17 20:19:29;;;;;;;;;;;;;;;;;;4361140;32;70346;-64
2022/11/17 20:22:16;;;;;;;1.08;0.60;;;;;;;;;;4384664;32;66189;-63
2022/11/17 20:25:04;;;;;;;2.97;0.90;;;;;;;;;;4370969;32;67830;-63
2022/11/17 20:27:51;;;;;;;0.88;0.60;;;;;;;;;;4382502;32;59043;-64
2022/11/17 20:30:38;;;;;;;1.52;1.20;;;;;;;;;;4371288;32;70436;-63
2022/11/17 20:33:25;;;;;;;1.12;1.02;;;;;;;;;;4371738;32;68381;-64
2022/11/17 20:36:14;;;;;;;0.95;0.80;;;;;;;;;;4371502;32;67874;-64
2022/11/17 20:39:03;;;;;;;0.55;0.55;;;;;;;;;;4381961;32;71812;-64
2022/11/17 20:41:49;;;;;;;1.08;0.98;;;;;;;;;;4371371;32;66835;-63
2022/11/17 20:44:36;;;;;;;;;;;;;;;;;;4372241;32;69719;-64
2022/11/17 20:47:26;;;;;;;1.98;0.82;;;;;;;;;;4389374;32;67352;-64
2022/11/17 20:50:13;;;;;;;2.25;0.80;;;;;;;;;;4386183;32;72016;-65
2022/11/17 20:52:59;;;;;;;0.80;0.80;;;;;;;;;;4384974;32;64849;-64
2022/11/17 20:55:46;;;;;;;;;;;;;;;;;;4383418;32;66510;-63
2022/11/17 20:58:32;;;;;;;0.90;0.90;;;;;;;;;;4384206;32;59194;-64
2022/11/17 21:01:22;;;;;;;0.55;0.43;;;;;;;;;;4360577;32;71143;-63
2022/11/17 21:04:10;;;;;;;1.40;0.93;;;;;;;;;;4382614;32;69222;-62
2022/11/17 21:06:57;;;;;;;0.93;0.80;;;;;;;;;;4383843;32;66729;-64
2022/11/17 21:09:43;;;;;;;;;;;;;;;;;;4375702;32;60356;-63
2022/11/17 21:12:31;;;;;;;1.92;0.88;;;;;;;;;;4388582;32;70061;-64
2022/11/17 21:15:18;;;;;;;0.70;0.70;;;;;;;;;;4387744;32;69576;-63
2022/11/17 21:18:23;;;;;;;0.95;0.85;;;;;;;;;;4375611;32;66943;-64
2022/11/17 21:21:10;;;;;;;1.23;1.12;;;;;;;;;;4381685;32;71562;-64
2022/11/17 21:23:57;;;;;;;0.70;0.65;;;;;;;;;;4381692;32;65469;-63
2022/11/17 21:26:44;;;;;;;2.22;0.90;;;;;;;;;;4383557;32;67082;-64
2022/11/17 21:29:31;;;;;;;0.50;0.50;;;;;;;;;;4374384;32;60369;-64
2022/11/17 21:32:18;;;;;;;0.85;0.77;;;;;;;;;;4371534;32;68275;-63
2022/11/17 21:35:05;;;;;;;1.08;0.80;;;;;;;;;;4360512;32;66770;-64
2022/11/17 21:37:52;;;;;;;0.55;0.40;;;;;;;;;;4372498;32;66795;-63
2022/11/17 21:40:39;;;;;;;1.45;0.65;;;;;;;;;;4386494;32;60206;-64
2022/11/17 21:43:25;;;;;;;1.12;0.90;;;;;;;;;;4375886;32;69553;-65
2022/11/17 21:46:20;;;;;;;0.82;0.77;;;;;;;;;;4373404;32;68462;-63
2022/11/17 21:49:06;;;;;;;0.75;0.62;;;;;;;;;;4385214;32;68000;-63
2022/11/17 21:51:53;;;;;;;1.42;0.82;;;;;;;;;;4361860;32;72982;-64
2022/11/17 21:54:40;;;;;;;;;;;;;;;;;;4373617;32;65652;-63
2022/11/17 21:57:27;;;;;;;1.42;0.88;;;;;;;;;;4373477;32;67821;-64
2022/11/17 22:00:15;;;;;;;0.65;0.35;;;;;;;;;;4373062;32;67264;-64
2022/11/17 22:03:02;;;;;;;1.27;0.80;;;;;;;;;;4383446;32;71595;-64
2022/11/17 22:05:48;;;;;;;0.80;0.65;;;;;;;;;;4372430;32;67052;-64
2022/11/17 22:08:36;;;;;;;0.60;0.52;;;;;;;;;;4384847;32;66976;-64
2022/11/17 22:11:34;;;;;;;0.40;0.40;;;;;;;;;;4373192;32;59318;-65
2022/11/17 22:14:20;;;;;;;0.75;0.70;;;;;;;;;;4383681;32;69698;-64
2022/11/17 22:17:07;;;;;;;0.50;0.40;;;;;;;;;;4362311;32;68083;-64
2022/11/17 22:19:53;;;;;;;2.45;1.90;;;;;;;;;;4372887;32;67571;-64
2022/11/17 22:22:40;;;;;;;;;;;;;;;;;;4372503;32;72341;-63
2022/11/17 22:25:27;;;;;;;0.95;0.77;;;;;;;;;;4384938;32;69015;-63
2022/11/17 22:28:13;;;;;;;1.37;0.75;;;;;;;;;;4383530;32;69016;-64
2022/11/17 22:31:05;;;;;;;0.68;0.68;;;;;;;;;;4372775;32;66648;-64
2022/11/17 22:33:51;;;;;;;1.25;0.80;;;;;;;;;;4361309;32;72797;-64
2022/11/17 22:36:39;;;;;;;1.58;0.70;;;;;;;;;;4372091;32;66972;-63
2022/11/17 22:39:25;;;;;;;0.57;0.57;;;;;;;;;;4362040;32;68080;-64
2022/11/17 22:42:14;;;;;;;0.30;0.30;;;;;;;;;;4361462;32;61427;-64
2022/11/17 22:45:01;;;;;;;0.73;0.60;;;;;;;;;;4372720;32;69750;-64
2022/11/17 22:47:47;;;;;;;1.45;0.77;;;;;;;;;;4382772;32;68405;-66
2022/11/17 22:50:37;;;;;;;0.70;0.50;;;;;;;;;;4384584;32;67075;-64
2022/11/17 22:53:24;;;;;;;1.33;0.60;;;;;;;;;;4361551;32;60703;-64
2022/11/17 22:56:10;;;;;;;;;;;;;;;;;;4361588;32;70375;-64
2022/11/17 22:58:57;;;;;;;2.15;0.73;;;;;;;;;;4383020;32;68441;-63
2022/11/17 23:01:43;;;;;;;;;;;;;;;;;;4372661;32;67398;-66
2022/11/17 23:04:30;;;;;;;0.65;0.60;;;;;;;;;;4382462;32;72973;-63
2022/11/17 23:07:17;;;;;;;0.98;0.82;;;;;;;;;;4372325;32;65940;-64
2022/11/17 23:10:04;;;;;;;0.77;0.60;;;;;;;;;;4372435;32;67872;-63
2022/11/17 23:12:51;;;;;;;1.90;0.60;;;;;;;;;;4372385;32;67742;-64
2022/11/17 23:15:39;;;;;;;0.45;0.40;;;;;;;;;;4372024;32;71861;-64
2022/11/17 23:18:25;;;;;;;0.45;0.45;;;;;;;;;;4360764;32;67282;-65
2022/11/17 23:21:12;;;;;;;0.65;0.65;;;;;;;;;;4382770;32;67646;-64
2022/11/17 23:23:59;;;;;;;0.50;0.50;;;;;;;;;;4371804;32;59798;-64
2022/11/17 23:26:46;;;;;;;0.75;0.60;;;;;;;;;;4382651;32;69581;-64
2022/11/17 23:29:33;;;;;;;0.62;0.32;;;;;;;;;;4382633;32;68257;-64
2022/11/17 23:32:20;;;;;;;0.70;0.62;;;;;;;;;;4372018;32;68001;-63
2022/11/17 23:35:07;;;;;;;0.60;0.60;;;;;;;;;;4382859;32;70853;-64
2022/11/17 23:37:54;;;;;;;0.45;0.30;;;;;;;;;;4360604;32;71166;-63
2022/11/17 23:40:40;;;;;;;0.35;0.35;;;;;;;;;;4371848;32;69676;-64
2022/11/17 23:43:28;;;;;;;0.75;0.52;;;;;;;;;;4372070;32;67944;-64
2022/11/17 23:46:16;;;;;;;0.40;0.40;;;;;;;;;;4361250;32;71475;-64
2022/11/17 23:49:03;;;;;;;0.45;0.35;;;;;;;;;;4371936;32;65957;-64
2022/11/17 23:51:50;;;;;;;0.30;0.30;;;;;;;;;;4371857;32;66913;-64
2022/11/17 23:54:37;;;;;;;0.68;0.52;;;;;;;;;;4361530;32;60144;-64
2022/11/17 23:57:24;;;;;;;0.37;0.37;;;;;;;;;;4381711;32;69254;-63
